createdAt,value
2023-03-07T00:02:15.332Z,2.06
2023-03-07T00:04:46.008Z,2.07
2023-03-07T00:07:13.897Z,2.08
2023-03-07T00:09:42.152Z,2.04
2023-03-07T00:12:11.480Z,2.07
2023-03-07T00:14:39.168Z,2.06
2023-03-07T00:17:06.635Z,2.09
2023-03-07T00:19:34.522Z,2.09
2023-03-07T00:22:01.964Z,2.06
2023-03-07T00:24:29.535Z,2.04
2023-03-07T00:26:57.006Z,2.04
2023-03-07T00:29:26.130Z,2.04
2023-03-07T00:31:53.666Z,2.03
2023-03-07T00:34:21.134Z,2.03
2023-03-07T00:36:48.661Z,2.05
2023-03-07T00:39:16.411Z,2.03
2023-03-07T00:41:43.949Z,1.99
2023-03-07T00:44:11.400Z,1.97
2023-03-07T00:46:40.252Z,1.95
2023-03-07T00:49:07.762Z,1.94
2023-03-07T00:51:35.216Z,1.94
2023-03-07T00:54:02.915Z,1.92
2023-03-07T00:56:30.554Z,1.89
2023-03-07T00:58:58.060Z,1.82
2023-03-07T01:01:29.110Z,1.80
2023-03-07T01:03:58.068Z,1.79
2023-03-07T01:06:28.015Z,1.78
2023-03-07T01:08:57.415Z,1.74
2023-03-07T01:11:25.641Z,1.76
2023-03-07T01:13:55.556Z,1.78
2023-03-07T01:16:24.711Z,1.73
2023-03-07T01:18:54.687Z,1.73
2023-03-07T01:21:26.104Z,1.74
2023-03-07T01:23:54.279Z,1.74
2023-03-07T01:26:23.720Z,1.74
2023-03-07T01:28:52.817Z,1.73
2023-03-07T01:31:21.746Z,1.76
2023-03-07T01:33:50.274Z,1.80
2023-03-07T01:36:19.626Z,1.79
2023-03-07T01:38:49.839Z,1.80
2023-03-07T01:41:17.786Z,1.79
2023-03-07T01:43:47.858Z,1.86
2023-03-07T01:46:33.284Z,1.86
2023-03-07T01:49:05.529Z,1.94
2023-03-07T01:51:36.242Z,1.96
2023-03-07T01:54:09.309Z,1.93
2023-03-07T01:56:38.321Z,1.97
2023-03-07T01:59:06.830Z,1.97
2023-03-07T02:01:36.083Z,2.00
2023-03-07T02:04:08.301Z,2.02
2023-03-07T02:06:38.141Z,2.03
2023-03-07T02:09:13.257Z,1.95
2023-03-07T02:11:42.789Z,2.03
2023-03-07T02:14:10.613Z,2.01
2023-03-07T02:16:39.377Z,2.07
2023-03-07T02:19:21.962Z,2.10
2023-03-07T02:21:57.230Z,2.13
2023-03-07T02:24:32.472Z,2.08
2023-03-07T02:27:01.484Z,2.07
2023-03-07T02:29:29.035Z,2.06
2023-03-07T02:31:56.465Z,2.06
2023-03-07T02:34:26.625Z,2.07
2023-03-07T02:37:11.128Z,2.05
2023-03-07T02:39:41.611Z,2.04
2023-03-07T02:42:16.326Z,2.03
2023-03-07T02:44:57.635Z,2.07
2023-03-07T02:47:27.473Z,2.02
2023-03-07T02:49:55.606Z,2.06
2023-03-07T02:52:23.672Z,2.11
2023-03-07T02:54:51.242Z,2.11
2023-03-07T02:57:20.385Z,2.10
2023-03-07T02:59:47.971Z,2.07
2023-03-07T03:02:15.634Z,2.13
2023-03-07T03:04:43.282Z,2.10
2023-03-07T03:07:10.888Z,2.07
2023-03-07T03:09:38.622Z,2.11
2023-03-07T03:12:06.922Z,2.01
2023-03-07T03:14:38.029Z,1.96
2023-03-07T03:17:05.804Z,1.97
2023-03-07T03:19:33.148Z,1.95
2023-03-07T03:22:00.603Z,1.92
2023-03-07T03:24:30.927Z,1.93
2023-03-07T03:26:58.726Z,1.93
2023-03-07T03:29:28.114Z,1.91
2023-03-07T03:32:01.628Z,1.90
2023-03-07T03:34:29.162Z,1.89
2023-03-07T03:36:56.707Z,1.90
2023-03-07T03:39:24.306Z,1.87
2023-03-07T03:41:57.012Z,1.86
2023-03-07T03:44:24.452Z,1.90
2023-03-07T03:46:52.183Z,1.89
2023-03-07T03:49:23.484Z,1.85
2023-03-07T03:51:52.553Z,1.86
2023-03-07T03:54:20.109Z,1.84
2023-03-07T03:56:47.585Z,1.84
2023-03-07T03:59:15.038Z,1.83
2023-03-07T04:01:42.565Z,1.85
2023-03-07T04:04:10.374Z,1.88
2023-03-07T04:06:42.620Z,1.89
2023-03-07T04:09:10.624Z,1.91
2023-03-07T04:11:41.887Z,1.90
2023-03-07T04:14:09.469Z,1.90
2023-03-07T04:16:37.170Z,1.96
2023-03-07T04:19:04.792Z,2.01
2023-03-07T04:21:32.229Z,2.04
2023-03-07T04:24:02.162Z,2.10
2023-03-07T04:26:31.785Z,2.15
2023-03-07T04:28:59.470Z,2.11
2023-03-07T04:31:33.006Z,2.16
2023-03-07T04:34:03.405Z,2.22
2023-03-07T04:36:31.633Z,2.21
2023-03-07T04:38:59.561Z,2.21
2023-03-07T04:41:29.140Z,2.23
2023-03-07T04:44:22.958Z,2.20
2023-03-07T04:46:51.142Z,2.26
2023-03-07T04:49:18.577Z,2.22
2023-03-07T04:51:46.062Z,2.24
2023-03-07T04:54:15.965Z,2.22
2023-03-07T04:56:46.622Z,2.25
2023-03-07T04:59:14.329Z,2.27
2023-03-07T05:01:42.079Z,2.29
2023-03-07T05:04:09.804Z,2.29
2023-03-07T05:06:39.065Z,2.30
2023-03-07T05:09:06.827Z,2.34
2023-03-07T05:11:34.385Z,2.35
2023-03-07T05:14:03.164Z,2.36
2023-03-07T05:16:30.610Z,2.42
2023-03-07T05:18:57.969Z,2.42
2023-03-07T05:21:25.478Z,2.41
2023-03-07T05:23:52.900Z,2.41
2023-03-07T05:26:20.760Z,2.44
2023-03-07T05:28:48.387Z,2.46
2023-03-07T05:31:18.567Z,2.47
2023-03-07T05:33:46.470Z,2.50
2023-03-07T05:36:15.222Z,2.58
2023-03-07T05:38:42.817Z,2.57
2023-03-07T05:41:10.510Z,2.53
2023-03-07T05:43:38.003Z,2.56
2023-03-07T05:46:05.680Z,2.60
2023-03-07T05:48:34.718Z,2.60
2023-03-07T05:51:02.176Z,2.61
2023-03-07T05:53:30.500Z,2.64
2023-03-07T05:55:58.084Z,2.63
2023-03-07T05:58:25.673Z,2.66
2023-03-07T06:00:53.114Z,2.66
2023-03-07T06:03:21.134Z,2.66
2023-03-07T06:05:50.747Z,2.67
2023-03-07T06:08:18.481Z,2.66
2023-03-07T06:10:49.593Z,2.69
2023-03-07T06:13:19.394Z,2.73
2023-03-07T06:15:49.429Z,2.72
2023-03-07T06:18:17.519Z,2.74
2023-03-07T06:20:45.610Z,2.76
2023-03-07T06:23:14.449Z,2.81
2023-03-07T06:25:41.971Z,2.82
2023-03-07T06:28:09.599Z,2.82
2023-03-07T06:30:37.087Z,2.85
2023-03-07T06:33:04.680Z,2.88
2023-03-07T06:35:32.394Z,2.88
2023-03-07T06:38:00.009Z,2.89
2023-03-07T06:40:28.926Z,2.95
2023-03-07T06:42:56.462Z,2.96
2023-03-07T06:45:24.010Z,2.99
2023-03-07T06:47:51.764Z,3.07
2023-03-07T06:50:26.422Z,3.11
2023-03-07T06:52:57.620Z,3.15
2023-03-07T06:55:25.615Z,3.16
2023-03-07T06:57:54.431Z,3.15
2023-03-07T07:00:22.963Z,3.12
2023-03-07T07:02:50.658Z,3.16
2023-03-07T07:05:18.179Z,3.16
2023-03-07T07:07:46.498Z,3.18
2023-03-07T07:10:13.933Z,3.20
2023-03-07T07:12:41.333Z,3.23
2023-03-07T07:15:10.866Z,3.29
2023-03-07T07:17:40.992Z,3.33
2023-03-07T07:20:11.305Z,3.34
2023-03-07T07:22:40.849Z,3.37
2023-03-07T07:25:10.450Z,3.44
2023-03-07T07:27:38.197Z,3.45
2023-03-07T07:30:07.126Z,3.51
2023-03-07T07:32:36.512Z,3.48
2023-03-07T07:35:06.056Z,3.55
2023-03-07T07:37:33.685Z,3.60
2023-03-07T07:40:01.178Z,3.67
2023-03-07T07:42:31.838Z,3.78
2023-03-07T07:45:17.378Z,3.89
2023-03-07T07:47:48.078Z,3.99
2023-03-07T07:50:16.250Z,4.11
2023-03-07T07:52:43.722Z,4.16
2023-03-07T07:55:14.304Z,4.17
2023-03-07T07:57:42.324Z,4.19
2023-03-07T08:00:12.279Z,4.14
2023-03-07T08:02:40.242Z,4.27
2023-03-07T08:05:10.660Z,4.32
2023-03-07T08:07:38.144Z,4.31
2023-03-07T08:10:06.871Z,4.30
2023-03-07T08:12:34.422Z,4.33
2023-03-07T08:15:02.109Z,4.36
2023-03-07T08:17:29.810Z,4.47
2023-03-07T08:20:01.662Z,4.52
2023-03-07T08:22:30.771Z,4.59
2023-03-07T08:24:58.275Z,4.60
2023-03-07T08:27:27.181Z,4.64
2023-03-07T08:29:54.672Z,5.23
2023-03-07T08:32:22.178Z,5.22
2023-03-07T08:34:49.643Z,5.13
2023-03-07T08:37:17.380Z,5.18
2023-03-07T08:39:46.276Z,5.07
2023-03-07T08:42:13.726Z,5.25
2023-03-07T08:44:41.105Z,5.23
2023-03-07T08:47:08.807Z,5.41
2023-03-07T08:49:36.171Z,5.44
2023-03-07T08:52:03.932Z,5.18
2023-03-07T08:54:32.641Z,5.15
2023-03-07T08:57:01.455Z,4.92
2023-03-07T08:59:28.880Z,4.81
2023-03-07T09:01:57.557Z,4.89
2023-03-07T09:04:25.118Z,4.88
2023-03-07T09:06:52.845Z,4.94
2023-03-07T09:09:20.182Z,4.98
2023-03-07T09:11:47.650Z,5.14
2023-03-07T09:14:16.425Z,5.66
2023-03-07T09:16:43.891Z,5.90
2023-03-07T09:19:11.494Z,5.59
2023-03-07T09:21:39.792Z,5.81
2023-03-07T09:24:07.587Z,6.22
2023-03-07T09:26:34.957Z,5.75
2023-03-07T09:29:02.435Z,5.59
2023-03-07T09:31:31.304Z,5.95
2023-03-07T09:33:58.816Z,5.76
2023-03-07T09:36:26.326Z,5.79
2023-03-07T09:38:53.782Z,6.19
2023-03-07T09:41:35.564Z,6.53
2023-03-07T09:44:15.661Z,6.55
2023-03-07T09:47:34.224Z,6.48
2023-03-07T09:50:03.079Z,6.56
2023-03-07T09:52:34.840Z,6.65
2023-03-07T09:55:06.492Z,6.14
2023-03-07T09:57:38.052Z,5.89
2023-03-07T10:00:17.239Z,5.82
2023-03-07T10:02:49.947Z,5.94
2023-03-07T10:05:29.323Z,5.76
2023-03-07T10:07:57.370Z,5.71
2023-03-07T10:10:30.103Z,5.91
2023-03-07T10:13:11.263Z,5.73
2023-03-07T10:15:47.629Z,6.30
2023-03-07T10:18:36.438Z,5.81
2023-03-07T10:21:13.740Z,5.87
2023-03-07T10:24:04.891Z,5.78
2023-03-07T10:26:34.281Z,5.93
2023-03-07T10:29:10.520Z,5.55
2023-03-07T10:31:41.398Z,5.41
2023-03-07T10:34:26.418Z,5.72
2023-03-07T10:37:08.376Z,5.72
2023-03-07T10:39:43.591Z,6.00
2023-03-07T10:42:13.448Z,5.79
2023-03-07T10:44:42.084Z,5.27
2023-03-07T10:47:18.895Z,5.42
2023-03-07T10:49:50.132Z,5.34
2023-03-07T10:52:29.164Z,5.30
2023-03-07T10:55:38.106Z,5.20
2023-03-07T10:58:27.624Z,5.08
2023-03-07T11:01:17.125Z,4.92
2023-03-07T11:03:53.202Z,4.81
2023-03-07T11:06:30.850Z,4.97
2023-03-07T11:09:10.077Z,4.88
2023-03-07T11:11:38.153Z,4.72
2023-03-07T11:14:07.842Z,4.92
2023-03-07T11:16:40.652Z,4.85
2023-03-07T11:19:33.917Z,4.90
2023-03-07T11:22:04.710Z,5.16
2023-03-07T11:24:37.333Z,5.11
2023-03-07T11:27:05.976Z,4.92
2023-03-07T11:29:34.782Z,4.97
2023-03-07T11:32:14.240Z,4.85
2023-03-07T11:34:49.396Z,5.00
2023-03-07T11:37:26.054Z,5.00
2023-03-07T11:40:03.875Z,4.92
2023-03-07T11:42:35.012Z,4.85
2023-03-07T11:45:15.740Z,4.92
2023-03-07T11:47:51.422Z,5.12
2023-03-07T11:50:23.177Z,5.16
2023-03-07T11:53:39.230Z,5.08
2023-03-07T11:56:21.493Z,4.97
2023-03-07T11:59:26.327Z,4.99
2023-03-07T12:01:56.265Z,4.96
2023-03-07T12:04:48.893Z,4.90
2023-03-07T12:07:34.002Z,4.90
2023-03-07T12:10:13.726Z,5.04
2023-03-07T12:12:54.169Z,4.93
2023-03-07T12:15:35.750Z,4.85
2023-03-07T12:18:18.515Z,5.02
2023-03-07T12:20:56.001Z,5.07
2023-03-07T12:23:33.750Z,5.12
2023-03-07T12:26:10.361Z,5.32
2023-03-07T12:28:44.883Z,5.53
2023-03-07T12:31:17.921Z,5.46
2023-03-07T12:33:54.383Z,5.37
2023-03-07T12:36:29.267Z,5.37
2023-03-07T12:39:01.380Z,5.47
2023-03-07T12:41:44.688Z,5.44
2023-03-07T12:44:17.596Z,5.34
2023-03-07T12:46:52.644Z,5.20
2023-03-07T12:49:24.864Z,5.13
2023-03-07T12:51:57.592Z,5.02
2023-03-07T12:54:29.451Z,5.00
2023-03-07T12:57:05.951Z,5.05
2023-03-07T12:59:37.133Z,5.25
2023-03-07T13:02:11.675Z,5.47
2023-03-07T13:04:42.564Z,5.71
2023-03-07T13:07:13.251Z,6.02
2023-03-07T13:09:43.351Z,6.05
2023-03-07T13:12:39.415Z,5.86
2023-03-07T13:15:46.597Z,5.75
2023-03-07T13:18:30.118Z,5.41
2023-03-07T13:21:09.781Z,5.33
2023-03-07T13:23:37.267Z,5.30
2023-03-07T13:26:22.879Z,5.39
2023-03-07T13:28:52.557Z,5.36
2023-03-07T13:31:44.952Z,5.47
2023-03-07T13:34:49.553Z,5.67
2023-03-07T13:37:54.606Z,5.65
2023-03-07T13:40:53.318Z,5.70
2023-03-07T13:44:00.193Z,5.89
2023-03-07T13:46:52.438Z,6.04
2023-03-07T13:49:40.319Z,6.19
2023-03-07T13:52:46.593Z,6.05
2023-03-07T13:55:25.022Z,6.02
2023-03-07T13:57:56.363Z,5.96
2023-03-07T14:00:28.137Z,5.89
2023-03-07T14:02:57.482Z,6.05
2023-03-07T14:05:25.544Z,6.12
2023-03-07T14:07:53.695Z,6.17
2023-03-07T14:10:26.322Z,6.29
2023-03-07T14:13:16.646Z,6.58
2023-03-07T14:15:55.084Z,7.02
2023-03-07T14:18:39.298Z,7.14
2023-03-07T14:21:13.940Z,7.09
2023-03-07T14:24:13.956Z,7.42
2023-03-07T14:26:44.655Z,6.89
2023-03-07T14:29:21.986Z,6.96
2023-03-07T14:31:53.176Z,7.09
2023-03-07T14:34:27.760Z,7.28
2023-03-07T14:36:57.283Z,7.40
2023-03-07T14:39:29.503Z,7.13
2023-03-07T14:42:07.748Z,7.50
2023-03-07T14:45:03.060Z,7.12
2023-03-07T14:47:45.227Z,6.60
2023-03-07T14:50:17.122Z,6.71
2023-03-07T14:52:46.039Z,6.40
2023-03-07T14:55:17.916Z,6.49
2023-03-07T14:57:49.506Z,6.18
2023-03-07T15:00:25.359Z,5.95
2023-03-07T15:02:55.099Z,6.06
2023-03-07T15:05:26.569Z,5.95
2023-03-07T15:07:54.918Z,5.93
2023-03-07T15:10:27.012Z,5.81
2023-03-07T15:12:57.024Z,5.78
2023-03-07T15:15:29.605Z,5.75
2023-03-07T15:18:04.062Z,5.85
2023-03-07T15:20:33.938Z,5.88
2023-03-07T15:23:05.159Z,5.95
2023-03-07T15:25:33.531Z,6.00
2023-03-07T15:28:02.712Z,6.05
2023-03-07T15:30:33.192Z,5.87
2023-03-07T15:33:12.070Z,6.01
2023-03-07T15:35:41.223Z,6.21
2023-03-07T15:38:15.815Z,6.09
2023-03-07T15:40:44.163Z,6.12
2023-03-07T15:43:17.718Z,6.23
2023-03-07T15:45:58.917Z,6.56
2023-03-07T15:48:38.367Z,6.81
2023-03-07T15:51:14.060Z,6.87
2023-03-07T15:53:43.151Z,6.89
2023-03-07T15:56:24.902Z,6.82
2023-03-07T15:59:01.929Z,6.78
2023-03-07T16:01:30.044Z,6.72
2023-03-07T16:03:59.038Z,6.45
2023-03-07T16:06:33.151Z,6.30
2023-03-07T16:09:00.572Z,5.94
2023-03-07T16:11:28.023Z,6.01
2023-03-07T16:13:55.518Z,5.95
2023-03-07T16:16:25.497Z,6.07
2023-03-07T16:18:54.522Z,6.22
2023-03-07T16:21:22.362Z,6.27
2023-03-07T16:23:51.409Z,6.24
2023-03-07T16:26:23.490Z,6.02
2023-03-07T16:28:52.830Z,5.94
2023-03-07T16:31:20.870Z,5.70
2023-03-07T16:33:48.634Z,5.64
2023-03-07T16:36:16.361Z,5.57
2023-03-07T16:38:44.312Z,5.46
2023-03-07T16:41:16.480Z,5.47
2023-03-07T16:43:44.999Z,5.39
2023-03-07T16:46:16.169Z,5.35
2023-03-07T16:48:44.689Z,5.33
2023-03-07T16:51:16.737Z,5.27
2023-03-07T16:53:44.408Z,5.21
2023-03-07T16:56:24.990Z,5.17
2023-03-07T16:58:52.988Z,5.07
2023-03-07T17:01:20.460Z,5.05
2023-03-07T17:03:48.049Z,4.97
2023-03-07T17:06:17.032Z,4.93
2023-03-07T17:08:45.045Z,4.84
2023-03-07T17:11:18.878Z,4.83
2023-03-07T17:13:48.575Z,4.83
2023-03-07T17:16:16.957Z,4.82
2023-03-07T17:18:44.802Z,4.81
2023-03-07T17:21:14.174Z,4.72
2023-03-07T17:23:42.248Z,4.74
2023-03-07T17:26:15.045Z,4.76
2023-03-07T17:28:44.053Z,4.70
2023-03-07T17:31:11.463Z,4.68
2023-03-07T17:33:38.914Z,4.70
2023-03-07T17:36:09.290Z,4.65
2023-03-07T17:38:37.106Z,4.64
2023-03-07T17:41:04.935Z,4.63
2023-03-07T17:43:33.462Z,4.61
2023-03-07T17:46:08.026Z,4.63
2023-03-07T17:48:38.126Z,4.59
2023-03-07T17:51:08.971Z,4.60
2023-03-07T17:53:37.242Z,4.58
2023-03-07T17:56:08.276Z,4.61
2023-03-07T17:58:35.957Z,4.53
2023-03-07T18:01:06.634Z,4.50
2023-03-07T18:03:34.568Z,4.49
2023-03-07T18:06:02.011Z,4.44
2023-03-07T18:08:29.534Z,4.48
2023-03-07T18:11:03.419Z,4.46
2023-03-07T18:13:30.819Z,4.39
2023-03-07T18:15:58.701Z,4.31
2023-03-07T18:18:32.877Z,4.19
2023-03-07T18:21:03.510Z,4.03
2023-03-07T18:23:31.248Z,3.85
2023-03-07T18:26:00.684Z,3.72
2023-03-07T18:28:28.176Z,3.68
2023-03-07T18:30:59.274Z,3.61
2023-03-07T18:33:30.755Z,3.58
2023-03-07T18:35:58.407Z,3.58
2023-03-07T18:38:26.422Z,3.58
2023-03-07T18:41:03.394Z,3.59
2023-03-07T18:43:30.945Z,3.72
2023-03-07T18:45:58.410Z,3.64
2023-03-07T18:48:25.954Z,3.63
2023-03-07T18:51:08.704Z,3.57
2023-03-07T18:53:36.387Z,3.54
2023-03-07T18:56:04.815Z,3.50
2023-03-07T18:58:33.050Z,3.45
2023-03-07T19:01:09.151Z,3.47
2023-03-07T19:03:37.083Z,3.50
2023-03-07T19:06:06.826Z,3.51
2023-03-07T19:08:34.886Z,3.52
2023-03-07T19:11:02.919Z,3.53
2023-03-07T19:13:30.643Z,3.46
2023-03-07T19:16:02.175Z,3.43
2023-03-07T19:18:29.799Z,3.43
2023-03-07T19:20:57.327Z,3.35
2023-03-07T19:23:26.559Z,3.27
2023-03-07T19:25:53.755Z,3.23
2023-03-07T19:28:31.949Z,3.16
2023-03-07T19:31:06.165Z,3.11
2023-03-07T19:33:33.873Z,3.02
2023-03-07T19:36:02.516Z,3.00
2023-03-07T19:38:31.428Z,3.00
2023-03-07T19:40:59.410Z,3.03
2023-03-07T19:43:27.304Z,3.03
2023-03-07T19:45:55.586Z,3.05
2023-03-07T19:48:23.585Z,3.04
2023-03-07T19:50:51.609Z,3.01
2023-03-07T19:53:19.613Z,3.04
2023-03-07T19:55:48.458Z,3.07
2023-03-07T19:58:16.216Z,3.07
2023-03-07T20:00:46.512Z,3.05
2023-03-07T20:03:15.122Z,3.10
2023-03-07T20:05:43.626Z,3.17
2023-03-07T20:08:11.690Z,3.28
2023-03-07T20:10:39.642Z,3.33
2023-03-07T20:13:08.549Z,3.34
2023-03-07T20:15:36.320Z,3.38
2023-03-07T20:18:05.824Z,3.40
2023-03-07T20:20:35.197Z,3.42
2023-03-07T20:23:02.812Z,3.50
2023-03-07T20:25:31.184Z,3.55
2023-03-07T20:27:59.003Z,3.57
2023-03-07T20:30:27.898Z,3.67
2023-03-07T20:32:55.920Z,3.70
2023-03-07T20:35:24.044Z,3.72
2023-03-07T20:37:51.480Z,3.76
2023-03-07T20:40:19.265Z,3.74
2023-03-07T20:42:46.714Z,3.72
2023-03-07T20:45:14.234Z,3.71
2023-03-07T20:47:46.349Z,3.67
2023-03-07T20:50:13.837Z,3.69
2023-03-07T20:52:41.251Z,3.72
2023-03-07T20:55:08.948Z,3.67
2023-03-07T20:57:38.852Z,3.62
2023-03-07T21:00:10.519Z,3.66
2023-03-07T21:02:39.715Z,3.62
2023-03-07T21:05:08.730Z,3.58
2023-03-07T21:07:36.177Z,3.56
2023-03-07T21:10:04.038Z,3.50
2023-03-07T21:12:31.451Z,3.45
2023-03-07T21:14:58.919Z,3.42
2023-03-07T21:17:26.462Z,3.47
2023-03-07T21:19:53.933Z,3.52
2023-03-07T21:22:24.556Z,3.53
2023-03-07T21:24:52.000Z,3.48
2023-03-07T21:27:20.829Z,3.51
2023-03-07T21:29:48.199Z,3.51
2023-03-07T21:32:18.446Z,3.51
2023-03-07T21:34:45.900Z,3.54
2023-03-07T21:37:13.447Z,3.52
2023-03-07T21:39:42.431Z,3.53
2023-03-07T21:42:09.958Z,3.51
2023-03-07T21:44:39.089Z,3.49
2023-03-07T21:47:06.428Z,3.56
2023-03-07T21:49:34.032Z,3.59
2023-03-07T21:52:04.424Z,3.59
2023-03-07T21:54:32.049Z,3.62
2023-03-07T21:57:01.538Z,3.62
2023-03-07T21:59:29.333Z,3.62
2023-03-07T22:01:56.991Z,3.58
2023-03-07T22:04:24.505Z,3.64
2023-03-07T22:06:53.029Z,3.63
2023-03-07T22:09:23.186Z,3.56
2023-03-07T22:11:50.537Z,3.56
2023-03-07T22:14:19.386Z,3.56
2023-03-07T22:16:46.988Z,3.54
2023-03-07T22:19:14.539Z,3.53
2023-03-07T22:21:42.062Z,3.56
2023-03-07T22:24:11.216Z,3.58
2023-03-07T22:26:38.630Z,3.55
2023-03-07T22:29:06.264Z,3.55
2023-03-07T22:31:35.127Z,3.57
2023-03-07T22:34:02.844Z,3.54
2023-03-07T22:36:30.397Z,3.49
2023-03-07T22:38:57.981Z,3.48
2023-03-07T22:41:26.120Z,3.47
2023-03-07T22:43:54.001Z,3.47
2023-03-07T22:46:21.607Z,3.47
2023-03-07T22:48:53.852Z,3.49
2023-03-07T22:51:24.357Z,3.50
2023-03-07T22:53:52.032Z,3.46
2023-03-07T22:56:21.549Z,3.53
2023-03-07T22:58:49.709Z,3.51
2023-03-07T23:01:20.304Z,3.49
2023-03-07T23:03:48.332Z,3.44
2023-03-07T23:06:18.109Z,3.49
2023-03-07T23:08:46.214Z,3.51
2023-03-07T23:11:14.800Z,3.54
2023-03-07T23:13:42.355Z,3.51
2023-03-07T23:16:11.987Z,3.50
2023-03-07T23:18:40.450Z,3.51
2023-03-07T23:21:10.421Z,3.52
2023-03-07T23:23:39.484Z,3.56
2023-03-07T23:26:07.408Z,3.51
2023-03-07T23:28:35.444Z,3.46
2023-03-07T23:31:03.480Z,3.48
2023-03-07T23:33:31.384Z,3.51
2023-03-07T23:36:00.334Z,3.49
2023-03-07T23:38:27.894Z,3.55
2023-03-07T23:40:58.219Z,3.54
2023-03-07T23:43:25.956Z,3.50
2023-03-07T23:45:53.375Z,3.51
2023-03-07T23:48:21.220Z,3.52
2023-03-07T23:50:49.271Z,3.48
2023-03-07T23:53:16.726Z,3.53
2023-03-07T23:55:44.225Z,3.47
2023-03-07T23:58:13.218Z,3.50
